createdAt,value
2019-01-23T00:01:51.990Z,133.07
2019-01-23T00:04:22.694Z,126.13
2019-01-23T00:06:52.834Z,120.90
2019-01-23T00:09:23.025Z,119.77
2019-01-23T00:11:53.130Z,118.20
2019-01-23T00:14:23.258Z,124.27
2019-01-23T00:16:53.396Z,125.30
2019-01-23T00:19:23.510Z,131.87
2019-01-23T00:21:53.930Z,123.30
2019-01-23T00:24:24.026Z,129.90
2019-01-23T00:26:54.594Z,127.10
2019-01-23T00:29:24.698Z,126.80
2019-01-23T00:31:54.823Z,115.00
2019-01-23T00:34:24.954Z,119.73
2019-01-23T00:36:55.055Z,126.40
2019-01-23T00:39:25.526Z,111.03
2019-01-23T00:41:55.702Z,119.67
2019-01-23T00:44:25.846Z,127.43
2019-01-23T00:46:55.949Z,120.47
2019-01-23T00:49:26.080Z,123.20
2019-01-23T00:51:56.213Z,127.93
2019-01-23T00:54:26.543Z,115.00
2019-01-23T00:56:56.679Z,121.30
2019-01-23T00:59:26.779Z,118.80
2019-01-23T01:01:56.918Z,121.23
2019-01-23T01:04:27.022Z,126.17
2019-01-23T01:06:58.150Z,111.63
2019-01-23T01:09:28.250Z,117.83
2019-01-23T01:11:58.386Z,121.43
2019-01-23T01:14:28.510Z,115.37
2019-01-23T01:16:58.654Z,113.77
2019-01-23T01:19:28.777Z,130.03
2019-01-23T01:21:58.894Z,128.47
2019-01-23T01:24:29.019Z,124.40
2019-01-23T01:26:59.134Z,116.47
2019-01-23T01:29:29.362Z,113.63
2019-01-23T01:31:59.475Z,113.53
2019-01-23T01:34:29.598Z,118.27
2019-01-23T01:36:59.734Z,120.60
2019-01-23T01:39:29.882Z,124.00
2019-01-23T01:42:00.074Z,120.63
2019-01-23T01:44:30.198Z,125.07
2019-01-23T01:47:00.330Z,125.93
2019-01-23T01:49:30.433Z,121.63
2019-01-23T01:52:00.551Z,126.13
2019-01-23T01:54:30.660Z,119.30
2019-01-23T01:57:00.883Z,114.53
2019-01-23T01:59:30.986Z,121.77
2019-01-23T02:02:01.112Z,119.33
2019-01-23T02:04:31.249Z,116.47
2019-01-23T02:07:01.346Z,119.60
2019-01-23T02:09:35.448Z,125.07
2019-01-23T02:12:03.212Z,123.80
2019-01-23T02:14:33.354Z,126.80
2019-01-23T02:17:03.450Z,123.43
2019-01-23T02:19:33.569Z,114.70
2019-01-23T02:22:03.694Z,123.13
2019-01-23T02:24:33.822Z,126.47
2019-01-23T02:27:03.951Z,122.63
2019-01-23T02:29:34.047Z,122.67
2019-01-23T02:32:04.292Z,127.90
2019-01-23T02:34:34.395Z,126.47
2019-01-23T02:37:05.610Z,128.47
2019-01-23T02:39:35.698Z,109.10
2019-01-23T02:42:05.898Z,125.50
2019-01-23T02:44:36.014Z,125.03
2019-01-23T02:47:06.147Z,130.37
2019-01-23T02:49:36.282Z,123.93
2019-01-23T02:52:06.422Z,123.83
2019-01-23T02:54:36.643Z,121.80
2019-01-23T02:57:06.782Z,130.20
2019-01-23T02:59:36.932Z,132.23
2019-01-23T03:02:07.174Z,135.57
2019-01-23T03:04:37.326Z,134.23
2019-01-23T03:07:07.595Z,135.60
2019-01-23T03:09:37.760Z,132.80
2019-01-23T03:12:07.868Z,138.90
2019-01-23T03:14:38.008Z,133.73
2019-01-23T03:17:08.230Z,135.83
2019-01-23T03:19:38.453Z,135.97
2019-01-23T03:22:08.608Z,125.87
2019-01-23T03:24:38.726Z,134.03
2019-01-23T03:27:08.927Z,135.73
2019-01-23T03:29:39.090Z,139.53
2019-01-23T03:32:09.224Z,134.03
2019-01-23T03:34:39.352Z,136.30
2019-01-23T03:37:09.626Z,142.47
2019-01-23T03:39:39.855Z,153.93
2019-01-23T03:42:10.026Z,141.40
2019-01-23T03:44:40.147Z,138.67
2019-01-23T03:47:10.279Z,136.67
2019-01-23T03:49:40.379Z,128.10
2019-01-23T03:52:10.510Z,137.43
2019-01-23T03:54:40.602Z,150.67
2019-01-23T03:57:11.492Z,152.77
2019-01-23T03:59:41.590Z,140.13
2019-01-23T04:02:11.718Z,149.93
2019-01-23T04:04:41.834Z,155.67
2019-01-23T04:07:11.986Z,143.90
2019-01-23T04:09:42.131Z,159.33
2019-01-23T04:12:12.283Z,146.57
2019-01-23T04:14:42.394Z,143.60
2019-01-23T04:17:12.535Z,139.50
2019-01-23T04:19:42.676Z,133.63
2019-01-23T04:22:12.821Z,139.33
2019-01-23T04:24:42.949Z,134.90
2019-01-23T04:27:13.050Z,134.73
2019-01-23T04:29:43.178Z,143.97
2019-01-23T04:32:13.292Z,137.13
2019-01-23T04:34:43.422Z,142.03
2019-01-23T04:37:13.533Z,138.60
2019-01-23T04:39:43.754Z,137.77
2019-01-23T04:42:14.155Z,151.63
2019-01-23T04:44:44.306Z,145.80
2019-01-23T04:47:14.412Z,131.20
2019-01-23T04:49:44.552Z,141.53
2019-01-23T04:52:39.838Z,140.73
2019-01-23T04:55:10.380Z,149.03
2019-01-23T04:57:40.495Z,146.30
2019-01-23T05:00:12.003Z,144.83
2019-01-23T05:02:42.087Z,139.37
2019-01-23T05:05:12.698Z,143.80
2019-01-23T05:07:42.845Z,140.77
2019-01-23T05:10:12.957Z,145.33
2019-01-23T05:12:43.093Z,134.00
2019-01-23T05:15:13.311Z,141.53
2019-01-23T05:17:43.446Z,151.43
2019-01-23T05:20:13.603Z,140.13
2019-01-23T05:22:43.742Z,128.70
2019-01-23T05:25:13.974Z,139.93
2019-01-23T05:27:44.131Z,143.43
2019-01-23T05:30:20.616Z,150.37
2019-01-23T05:32:50.760Z,143.57
2019-01-23T05:35:20.901Z,149.67
2019-01-23T05:37:51.054Z,139.17
2019-01-23T05:40:21.174Z,139.90
2019-01-23T05:42:51.399Z,138.53
2019-01-23T05:45:21.815Z,135.07
2019-01-23T05:47:52.048Z,139.93
2019-01-23T05:50:22.346Z,127.63
2019-01-23T05:52:52.486Z,147.40
2019-01-23T05:55:22.620Z,143.17
2019-01-23T05:57:52.742Z,134.57
2019-01-23T06:00:23.472Z,144.47
2019-01-23T06:02:53.559Z,131.40
2019-01-23T06:05:23.706Z,145.27
2019-01-23T06:07:53.827Z,140.33
2019-01-23T06:10:24.058Z,142.37
2019-01-23T06:12:54.192Z,144.90
2019-01-23T06:15:24.312Z,131.73
2019-01-23T06:17:54.529Z,155.07
2019-01-23T06:20:24.662Z,173.43
2019-01-23T06:22:54.806Z,154.03
2019-01-23T06:25:24.924Z,155.57
2019-01-23T06:27:55.095Z,151.23
2019-01-23T06:30:26.459Z,149.87
2019-01-23T06:32:56.638Z,154.83
2019-01-23T06:35:26.746Z,133.80
2019-01-23T06:37:56.910Z,140.43
2019-01-23T06:40:27.039Z,151.47
2019-01-23T06:42:57.263Z,147.20
2019-01-23T06:45:27.414Z,160.60
2019-01-23T06:48:10.458Z,149.87
2019-01-23T06:50:40.562Z,159.53
2019-01-23T06:53:14.174Z,152.80
2019-01-23T06:55:42.483Z,153.37
2019-01-23T06:58:12.725Z,159.17
2019-01-23T07:00:42.845Z,153.60
2019-01-23T07:03:13.002Z,152.93
2019-01-23T07:05:43.122Z,163.03
2019-01-23T07:08:13.295Z,168.87
2019-01-23T07:10:43.406Z,156.27
2019-01-23T07:13:13.526Z,156.07
2019-01-23T07:15:43.668Z,161.03
2019-01-23T07:18:13.793Z,160.17
2019-01-23T07:20:44.317Z,163.77
2019-01-23T07:23:14.448Z,173.17
2019-01-23T07:25:44.590Z,176.27
2019-01-23T07:28:14.754Z,176.03
2019-01-23T07:30:44.886Z,183.50
2019-01-23T07:33:15.016Z,173.17
2019-01-23T07:35:45.144Z,184.27
2019-01-23T07:38:15.262Z,177.77
2019-01-23T07:40:45.380Z,178.97
2019-01-23T07:43:15.653Z,191.00
2019-01-23T07:45:45.783Z,198.60
2019-01-23T07:48:17.073Z,204.87
2019-01-23T07:50:47.389Z,187.83
2019-01-23T07:53:17.612Z,185.73
2019-01-23T07:55:47.746Z,185.30
2019-01-23T07:58:17.962Z,184.03
2019-01-23T08:00:48.078Z,198.40
2019-01-23T08:03:18.218Z,191.20
2019-01-23T08:05:48.370Z,206.57
2019-01-23T08:08:18.542Z,197.63
2019-01-23T08:10:48.658Z,203.60
2019-01-23T08:13:18.802Z,191.27
2019-01-23T08:15:49.030Z,200.27
2019-01-23T08:18:19.483Z,197.60
2019-01-23T08:20:50.295Z,214.93
2019-01-23T08:23:20.434Z,200.90
2019-01-23T08:25:50.638Z,209.40
2019-01-23T08:28:20.766Z,223.63
2019-01-23T08:30:50.923Z,220.63
2019-01-23T08:33:21.455Z,225.70
2019-01-23T08:35:52.720Z,217.73
2019-01-23T08:38:22.839Z,229.37
2019-01-23T08:40:53.066Z,234.03
2019-01-23T08:43:23.337Z,237.73
2019-01-23T08:45:53.494Z,239.40
2019-01-23T08:48:23.624Z,235.00
2019-01-23T08:50:53.750Z,234.73
2019-01-23T08:53:24.179Z,228.60
2019-01-23T08:55:54.302Z,249.53
2019-01-23T08:58:24.492Z,239.57
2019-01-23T09:00:54.606Z,254.37
2019-01-23T09:03:24.735Z,250.83
2019-01-23T09:05:54.872Z,260.87
2019-01-23T09:08:25.081Z,262.33
2019-01-23T09:10:55.557Z,259.97
2019-01-23T09:13:25.694Z,262.97
2019-01-23T09:15:55.850Z,261.53
2019-01-23T09:18:26.265Z,277.50
2019-01-23T09:20:57.488Z,264.07
2019-01-23T09:23:27.606Z,265.03
2019-01-23T09:25:57.811Z,267.90
2019-01-23T09:28:27.950Z,273.60
2019-01-23T09:31:50.057Z,268.57
2019-01-23T09:34:29.859Z,268.03
2019-01-23T09:37:13.090Z,277.33
2019-01-23T09:40:13.673Z,240.10
2019-01-23T09:43:17.889Z,265.37
2019-01-23T09:46:03.236Z,289.57
2019-01-23T09:49:06.998Z,281.40
2019-01-23T09:52:12.983Z,271.17
2019-01-23T09:54:43.162Z,267.50
2019-01-23T09:57:13.670Z,266.23
2019-01-23T09:59:43.822Z,271.07
2019-01-23T10:02:14.367Z,292.73
2019-01-23T10:04:44.478Z,270.40
2019-01-23T10:07:14.622Z,259.47
2019-01-23T10:09:46.813Z,275.63
2019-01-23T10:12:17.046Z,273.60
2019-01-23T10:14:47.823Z,279.00
2019-01-23T10:17:18.382Z,267.50
2019-01-23T10:19:48.498Z,269.57
2019-01-23T10:22:18.640Z,283.20
2019-01-23T10:24:48.762Z,277.07
2019-01-23T10:27:19.219Z,271.97
2019-01-23T10:29:49.357Z,289.07
2019-01-23T10:32:19.794Z,278.90
2019-01-23T10:34:50.243Z,290.17
2019-01-23T10:37:20.359Z,269.87
2019-01-23T10:39:50.504Z,272.97
2019-01-23T10:42:20.634Z,259.80
2019-01-23T10:44:50.975Z,264.07
2019-01-23T10:47:21.406Z,262.07
2019-01-23T10:49:51.540Z,255.10
2019-01-23T10:52:21.691Z,269.37
2019-01-23T10:54:52.154Z,268.13
2019-01-23T10:57:24.966Z,261.20
2019-01-23T10:59:55.082Z,261.83
2019-01-23T11:02:25.235Z,263.83
2019-01-23T11:04:55.358Z,246.67
2019-01-23T11:07:25.505Z,250.23
2019-01-23T11:09:55.631Z,246.37
2019-01-23T11:12:25.754Z,249.83
2019-01-23T11:14:55.902Z,233.30
2019-01-23T11:17:26.030Z,241.93
2019-01-23T11:19:56.182Z,236.80
2019-01-23T11:22:26.307Z,238.07
2019-01-23T11:24:56.445Z,222.97
2019-01-23T11:27:26.578Z,244.33
2019-01-23T11:29:56.694Z,236.07
2019-01-23T11:32:26.841Z,235.03
2019-01-23T11:34:57.026Z,242.70
2019-01-23T11:37:27.266Z,243.40
2019-01-23T11:39:57.378Z,254.40
2019-01-23T11:42:28.289Z,239.43
2019-01-23T11:44:58.766Z,240.93
2019-01-23T11:47:28.921Z,251.80
2019-01-23T11:49:59.087Z,241.93
2019-01-23T11:52:29.230Z,256.60
2019-01-23T11:54:59.450Z,242.03
2019-01-23T11:57:31.663Z,248.83
2019-01-23T12:00:01.775Z,240.87
2019-01-23T12:02:32.250Z,262.47
2019-01-23T12:05:02.947Z,253.70
2019-01-23T12:07:33.105Z,254.37
2019-01-23T12:10:04.962Z,269.40
2019-01-23T12:12:35.126Z,255.97
2019-01-23T12:15:06.555Z,265.50
2019-01-23T12:17:36.731Z,259.33
2019-01-23T12:20:07.386Z,268.97
2019-01-23T12:22:37.543Z,241.63
2019-01-23T12:25:08.619Z,252.37
2019-01-23T12:27:38.775Z,258.00
2019-01-23T12:30:12.503Z,249.47
2019-01-23T12:32:42.664Z,248.80
2019-01-23T12:35:12.884Z,239.13
2019-01-23T12:37:43.070Z,232.53
2019-01-23T12:40:13.637Z,237.23
2019-01-23T12:42:55.503Z,238.80
2019-01-23T12:45:27.351Z,252.20
2019-01-23T12:47:57.645Z,256.80
2019-01-23T12:50:30.147Z,265.57
2019-01-23T12:53:00.847Z,249.07
2019-01-23T12:55:31.579Z,250.07
2019-01-23T12:58:20.846Z,246.37
2019-01-23T13:00:50.955Z,245.37
2019-01-23T13:03:21.103Z,231.53
2019-01-23T13:05:51.370Z,224.03
2019-01-23T13:08:21.506Z,219.93
2019-01-23T13:10:51.890Z,232.13
2019-01-23T13:13:22.262Z,229.50
2019-01-23T13:15:52.750Z,234.80
2019-01-23T13:18:23.106Z,247.77
2019-01-23T13:20:53.509Z,238.50
2019-01-23T13:23:25.068Z,245.80
2019-01-23T13:25:55.722Z,226.17
2019-01-23T13:28:26.174Z,219.57
2019-01-23T13:30:56.908Z,228.63
2019-01-23T13:33:27.265Z,224.40
2019-01-23T13:35:57.657Z,212.77
2019-01-23T13:38:28.051Z,229.43
2019-01-23T13:40:58.478Z,224.93
2019-01-23T13:43:29.921Z,221.37
2019-01-23T13:46:00.394Z,217.93
2019-01-23T13:48:30.782Z,197.37
2019-01-23T13:51:01.210Z,206.93
2019-01-23T13:53:31.574Z,200.33
2019-01-23T13:56:02.066Z,202.17
2019-01-23T13:58:32.758Z,198.20
2019-01-23T14:01:03.203Z,182.70
2019-01-23T14:03:33.583Z,206.57
2019-01-23T14:06:03.962Z,189.00
2019-01-23T14:08:34.367Z,182.10
2019-01-23T14:11:05.445Z,186.63
2019-01-23T14:13:36.194Z,171.20
2019-01-23T14:16:06.714Z,178.03
2019-01-23T14:18:37.219Z,176.53
2019-01-23T14:21:07.873Z,162.77
2019-01-23T14:23:39.739Z,166.63
2019-01-23T14:26:10.852Z,158.73
2019-01-23T14:28:41.696Z,152.00
2019-01-23T14:31:12.347Z,152.40
2019-01-23T14:33:42.758Z,153.10
2019-01-23T14:36:13.130Z,140.77
2019-01-23T14:38:43.988Z,150.03
2019-01-23T14:41:14.394Z,138.07
2019-01-23T14:43:44.784Z,146.07
2019-01-23T14:46:15.670Z,133.23
2019-01-23T14:48:46.355Z,115.67
2019-01-23T14:51:16.734Z,130.40
2019-01-23T14:53:47.164Z,130.73
2019-01-23T14:56:17.550Z,122.50
2019-01-23T14:58:48.447Z,125.33
2019-01-23T15:01:18.831Z,124.53
2019-01-23T15:03:49.326Z,115.60
2019-01-23T15:06:20.139Z,118.70
2019-01-23T15:08:50.545Z,115.33
2019-01-23T15:11:20.911Z,127.03
2019-01-23T15:13:51.350Z,115.93
2019-01-23T15:16:21.735Z,108.90
2019-01-23T15:18:52.231Z,98.67
2019-01-23T15:21:22.587Z,99.63
2019-01-23T15:23:53.366Z,96.10
2019-01-23T15:26:23.716Z,90.90
2019-01-23T15:28:56.483Z,96.03
2019-01-23T15:31:26.838Z,96.37
2019-01-23T15:33:58.033Z,92.17
2019-01-23T15:36:28.397Z,102.53
2019-01-23T15:39:17.871Z,105.27
2019-01-23T15:41:48.239Z,91.37
2019-01-23T15:44:18.630Z,99.60
2019-01-23T15:46:49.091Z,98.10
2019-01-23T15:49:19.437Z,105.47
2019-01-23T15:51:49.868Z,89.67
2019-01-23T15:54:20.582Z,88.27
2019-01-23T15:56:51.004Z,89.70
2019-01-23T15:59:21.352Z,90.57
2019-01-23T16:01:51.736Z,88.57
2019-01-23T16:04:22.098Z,84.83
2019-01-23T16:06:52.886Z,75.47
2019-01-23T16:09:23.704Z,76.03
2019-01-23T16:11:54.151Z,75.77
2019-01-23T16:14:24.574Z,76.07
2019-01-23T16:16:54.967Z,78.27
2019-01-23T16:19:25.351Z,76.83
2019-01-23T16:21:56.166Z,76.93
2019-01-23T16:24:26.833Z,82.60
2019-01-23T16:26:57.293Z,80.07
2019-01-23T16:29:27.952Z,81.00
2019-01-23T16:31:58.843Z,78.17
2019-01-23T16:34:29.222Z,79.57
2019-01-23T16:36:59.595Z,75.17
2019-01-23T16:39:29.995Z,79.23
2019-01-23T16:42:01.073Z,77.87
2019-01-23T16:44:31.488Z,69.83
2019-01-23T16:47:02.577Z,76.50
2019-01-23T16:49:33.026Z,74.07
2019-01-23T16:52:03.390Z,79.97
2019-01-23T16:54:33.779Z,75.50
2019-01-23T16:57:04.371Z,75.13
2019-01-23T16:59:35.875Z,71.90
2019-01-23T17:02:06.250Z,83.33
2019-01-23T17:04:36.655Z,75.03
2019-01-23T17:07:07.274Z,79.93
2019-01-23T17:09:38.118Z,77.90
2019-01-23T17:12:09.288Z,76.73
2019-01-23T17:14:39.939Z,73.83
2019-01-23T17:17:22.229Z,78.20
2019-01-23T17:19:53.761Z,70.50
2019-01-23T17:22:24.115Z,71.97
2019-01-23T17:24:56.574Z,72.90
2019-01-23T17:27:26.940Z,67.23
2019-01-23T17:29:57.666Z,70.53
2019-01-23T17:32:28.315Z,73.63
2019-01-23T17:34:59.354Z,70.23
2019-01-23T17:37:29.855Z,67.50
2019-01-23T17:40:00.647Z,70.43
2019-01-23T17:42:30.998Z,67.07
2019-01-23T17:45:01.489Z,69.70
2019-01-23T17:47:31.851Z,76.70
2019-01-23T17:50:02.666Z,69.23
2019-01-23T17:52:33.030Z,72.67
2019-01-23T17:55:03.782Z,66.03
2019-01-23T17:57:34.142Z,66.80
2019-01-23T18:00:05.496Z,71.67
2019-01-23T18:02:36.147Z,69.80
2019-01-23T18:05:07.023Z,70.17
2019-01-23T18:07:37.803Z,72.87
2019-01-23T18:10:10.278Z,70.10
2019-01-23T18:12:40.626Z,73.63
2019-01-23T18:15:13.958Z,72.83
2019-01-23T18:17:45.778Z,71.97
2019-01-23T18:20:18.711Z,72.70
2019-01-23T18:22:50.038Z,71.17
2019-01-23T18:25:20.519Z,72.83
2019-01-23T18:27:50.864Z,68.57
2019-01-23T18:30:27.487Z,70.73
2019-01-23T18:33:00.193Z,74.03
2019-01-23T18:36:01.282Z,71.13
2019-01-23T18:39:19.543Z,78.87
2019-01-23T18:42:34.371Z,76.00
2019-01-23T18:45:28.992Z,72.07
2019-01-23T18:48:25.326Z,77.23
2019-01-23T18:51:17.087Z,71.10
2019-01-23T18:53:47.478Z,70.30
2019-01-23T18:56:17.842Z,71.60
2019-01-23T18:58:48.230Z,68.87
2019-01-23T19:01:18.962Z,69.70
2019-01-23T19:03:51.106Z,73.77
2019-01-23T19:06:21.766Z,72.33
2019-01-23T19:08:52.511Z,72.70
2019-01-23T19:11:23.234Z,77.53
2019-01-23T19:13:55.341Z,71.13
2019-01-23T19:16:25.710Z,76.93
2019-01-23T19:18:56.810Z,77.00
2019-01-23T19:21:27.280Z,70.13
2019-01-23T19:23:57.707Z,70.53
2019-01-23T19:26:28.066Z,76.10
2019-01-23T19:28:58.471Z,76.17
2019-01-23T19:31:28.831Z,76.93
2019-01-23T19:33:59.316Z,73.03
2019-01-23T19:36:29.867Z,75.87
2019-01-23T19:39:00.587Z,72.70
2019-01-23T19:41:31.107Z,73.07
2019-01-23T19:44:20.839Z,69.07
2019-01-23T19:46:51.587Z,71.83
2019-01-23T19:49:22.015Z,61.83
2019-01-23T19:51:52.387Z,74.60
2019-01-23T19:54:22.777Z,63.63
2019-01-23T19:56:53.155Z,71.77
2019-01-23T19:59:23.516Z,67.33
2019-01-23T20:01:53.997Z,66.13
2019-01-23T20:04:24.359Z,75.27
2019-01-23T20:06:54.748Z,70.90
2019-01-23T20:09:25.188Z,70.97
2019-01-23T20:11:55.535Z,69.33
2019-01-23T20:14:25.941Z,67.50
2019-01-23T20:16:56.298Z,73.77
2019-01-23T20:19:26.674Z,71.07
2019-01-23T20:21:57.049Z,73.07
2019-01-23T20:24:27.855Z,69.10
2019-01-23T20:26:58.919Z,70.73
2019-01-23T20:29:29.318Z,69.17
2019-01-23T20:31:59.679Z,72.63
2019-01-23T20:34:30.083Z,73.70
2019-01-23T20:37:00.819Z,69.17
2019-01-23T20:39:31.258Z,84.20
2019-01-23T20:42:01.619Z,72.60
2019-01-23T20:44:32.039Z,72.17
2019-01-23T20:47:02.423Z,69.97
2019-01-23T20:49:32.810Z,72.90
2019-01-23T20:52:04.247Z,70.80
2019-01-23T20:54:34.598Z,77.80
2019-01-23T20:57:05.326Z,77.07
2019-01-23T20:59:35.679Z,77.20
2019-01-23T21:02:06.181Z,73.07
2019-01-23T21:04:36.529Z,71.27
2019-01-23T21:40:25.237Z,77.87
2019-01-23T21:42:55.591Z,72.00
2019-01-23T21:45:27.122Z,66.83
2019-01-23T21:47:57.506Z,79.33
2019-01-23T21:50:27.902Z,73.93
2019-01-23T21:52:58.265Z,73.53
2019-01-23T21:55:30.060Z,69.03
2019-01-23T21:58:19.531Z,72.93
2019-01-23T22:01:00.431Z,72.57
2019-01-23T22:03:30.802Z,89.37
2019-01-23T22:06:01.256Z,77.13
2019-01-23T22:08:31.614Z,76.97
2019-01-23T22:11:02.260Z,75.77
2019-01-23T22:13:32.639Z,70.63
2019-01-23T22:16:03.071Z,74.23
2019-01-23T22:18:33.466Z,70.97
2019-01-23T22:21:03.830Z,69.07
2019-01-23T22:23:34.249Z,70.53
2019-01-23T22:26:04.710Z,75.47
2019-01-23T22:28:35.098Z,70.97
2019-01-23T22:31:05.487Z,77.17
2019-01-23T22:33:35.897Z,72.87
2019-01-23T22:36:06.268Z,74.67
2019-01-23T22:38:36.644Z,71.60
2019-01-23T22:41:07.024Z,68.17
2019-01-23T22:43:37.358Z,73.07
2019-01-23T22:46:07.751Z,72.43
2019-01-23T22:48:38.134Z,72.23
2019-01-23T22:51:08.534Z,71.63
2019-01-23T22:53:38.899Z,71.27
2019-01-23T22:56:09.362Z,70.80
2019-01-23T22:58:39.718Z,70.60
2019-01-23T23:01:23.938Z,76.03
2019-01-23T23:03:54.538Z,64.63
2019-01-23T23:06:25.455Z,76.13
2019-01-23T23:08:55.813Z,74.70
2019-01-23T23:11:26.181Z,68.63
2019-01-23T23:13:56.546Z,73.50
2019-01-23T23:16:26.914Z,73.80
2019-01-23T23:18:57.383Z,70.40
2019-01-23T23:21:27.748Z,75.00
2019-01-23T23:23:58.174Z,69.80
2019-01-23T23:26:28.591Z,71.30
2019-01-23T23:28:59.061Z,76.97
2019-01-23T23:31:29.412Z,72.03
2019-01-23T23:33:59.802Z,68.97
2019-01-23T23:36:30.182Z,73.13
2019-01-23T23:39:00.582Z,71.60
2019-01-23T23:41:30.926Z,70.27
2019-01-23T23:44:01.314Z,72.60
2019-01-23T23:46:31.682Z,73.17
2019-01-23T23:49:02.227Z,75.33
2019-01-23T23:51:32.593Z,69.17
2019-01-23T23:54:03.021Z,71.33
2019-01-23T23:56:33.473Z,69.00
2019-01-23T23:59:03.958Z,68.63
